sensor_id;sensor_type;location;lat;lon;timestamp;pressure;altitude;pressure_sealevel;temperature;humidity
41513;BME280;27244;59.940;30.280;2023-08-31T00:01:46;100686.59;;;24.25;53.34
41513;BME280;27244;59.940;30.280;2023-08-31T00:04:14;100657.16;;;24.14;53.71
41513;BME280;27244;59.940;30.280;2023-08-31T00:06:41;100649.00;;;24.03;53.55
41513;BME280;27244;59.940;30.280;2023-08-31T00:09:12;100636.25;;;23.98;53.36
41513;BME280;27244;59.940;30.280;2023-08-31T00:11:39;100676.78;;;24.17;53.38
41513;BME280;27244;59.940;30.280;2023-08-31T00:14:06;100623.34;;;24.14;53.09
41513;BME280;27244;59.940;30.280;2023-08-31T00:16:33;100562.91;;;23.89;53.04
41513;BME280;27244;59.940;30.280;2023-08-31T00:19:02;100607.91;;;24.18;52.87
41513;BME280;27244;59.940;30.280;2023-08-31T00:21:30;100581.63;;;24.09;52.78
41513;BME280;27244;59.940;30.280;2023-08-31T00:23:57;100594.44;;;24.10;52.71
41513;BME280;27244;59.940;30.280;2023-08-31T00:26:26;100640.38;;;24.23;52.84
41513;BME280;27244;59.940;30.280;2023-08-31T00:28:55;100619.19;;;24.18;52.84
41513;BME280;27244;59.940;30.280;2023-08-31T00:31:22;100611.50;;;24.19;52.77
41513;BME280;27244;59.940;30.280;2023-08-31T00:33:49;100582.66;;;24.15;52.55
41513;BME280;27244;59.940;30.280;2023-08-31T00:36:17;100557.03;;;23.96;52.89
41513;BME280;27244;59.940;30.280;2023-08-31T00:38:44;100626.41;;;24.19;52.99
41513;BME280;27244;59.940;30.280;2023-08-31T00:41:12;100612.06;;;24.14;52.96
41513;BME280;27244;59.940;30.280;2023-08-31T00:43:40;100610.59;;;24.09;52.69
41513;BME280;27244;59.940;30.280;2023-08-31T00:46:08;100611.16;;;24.17;52.55
41513;BME280;27244;59.940;30.280;2023-08-31T00:48:35;100599.19;;;24.13;52.69
41513;BME280;27244;59.940;30.280;2023-08-31T00:51:03;100612.25;;;24.07;52.76
41513;BME280;27244;59.940;30.280;2023-08-31T00:53:32;100609.78;;;24.09;52.92
41513;BME280;27244;59.940;30.280;2023-08-31T00:56:01;100632.84;;;24.20;52.88
41513;BME280;27244;59.940;30.280;2023-08-31T00:58:29;100632.03;;;24.19;52.86
41513;BME280;27244;59.940;30.280;2023-08-31T01:01:05;100606.63;;;24.07;52.99
41513;BME280;27244;59.940;30.280;2023-08-31T01:03:42;100619.03;;;24.09;53.22
41513;BME280;27244;59.940;30.280;2023-08-31T01:06:15;100638.47;;;24.20;52.83
41513;BME280;27244;59.940;30.280;2023-08-31T01:08:52;100635.41;;;24.27;52.80
41513;BME280;27244;59.940;30.280;2023-08-31T01:11:27;100627.09;;;24.23;52.75
41513;BME280;27244;59.940;30.280;2023-08-31T01:14:01;100620.66;;;24.23;52.66
41513;BME280;27244;59.940;30.280;2023-08-31T01:16:33;100591.31;;;24.08;52.93
41513;BME280;27244;59.940;30.280;2023-08-31T01:19:07;100614.22;;;24.22;52.74
41513;BME280;27244;59.940;30.280;2023-08-31T01:21:38;100595.16;;;24.14;53.34
41513;BME280;27244;59.940;30.280;2023-08-31T01:24:10;100598.31;;;24.16;53.61
41513;BME280;27244;59.940;30.280;2023-08-31T01:26:38;100617.47;;;24.21;53.47
41513;BME280;27244;59.940;30.280;2023-08-31T01:29:09;100569.41;;;23.99;53.49
41513;BME280;27244;59.940;30.280;2023-08-31T01:31:42;100560.66;;;23.97;53.39
41513;BME280;27244;59.940;30.280;2023-08-31T01:34:10;100556.25;;;23.96;53.64
41513;BME280;27244;59.940;30.280;2023-08-31T01:36:41;100544.28;;;23.92;53.71
41513;BME280;27244;59.940;30.280;2023-08-31T01:39:16;100551.50;;;24.06;53.75
41513;BME280;27244;59.940;30.280;2023-08-31T01:41:53;100559.94;;;24.06;53.99
41513;BME280;27244;59.940;30.280;2023-08-31T01:44:23;100585.56;;;24.11;53.83
41513;BME280;27244;59.940;30.280;2023-08-31T01:46:52;100568.75;;;24.08;53.58
41513;BME280;27244;59.940;30.280;2023-08-31T01:49:27;100534.94;;;24.08;53.65
41513;BME280;27244;59.940;30.280;2023-08-31T01:51:56;100511.97;;;23.96;53.87
41513;BME280;27244;59.940;30.280;2023-08-31T01:54:24;100484.25;;;23.82;54.15
41513;BME280;27244;59.940;30.280;2023-08-31T01:56:52;100503.72;;;23.89;53.88
41513;BME280;27244;59.940;30.280;2023-08-31T01:59:20;100534.16;;;24.07;54.00
41513;BME280;27244;59.940;30.280;2023-08-31T02:01:47;100527.03;;;24.02;54.08
41513;BME280;27244;59.940;30.280;2023-08-31T02:04:14;100526.06;;;24.09;53.77
41513;BME280;27244;59.940;30.280;2023-08-31T02:06:42;100516.56;;;24.03;53.29
41513;BME280;27244;59.940;30.280;2023-08-31T02:09:11;100503.28;;;24.03;53.73
41513;BME280;27244;59.940;30.280;2023-08-31T02:11:41;100468.81;;;23.87;53.70
41513;BME280;27244;59.940;30.280;2023-08-31T02:14:08;100500.69;;;24.09;53.85
41513;BME280;27244;59.940;30.280;2023-08-31T02:16:35;100497.97;;;24.06;53.85
41513;BME280;27244;59.940;30.280;2023-08-31T02:19:03;100498.63;;;24.10;53.96
41513;BME280;27244;59.940;30.280;2023-08-31T02:21:30;100478.34;;;24.02;53.84
41513;BME280;27244;59.940;30.280;2023-08-31T02:23:57;100456.53;;;23.93;53.86
41513;BME280;27244;59.940;30.280;2023-08-31T02:26:24;100449.53;;;23.85;53.75
41513;BME280;27244;59.940;30.280;2023-08-31T02:28:53;100481.16;;;24.02;53.74
41513;BME280;27244;59.940;30.280;2023-08-31T02:31:20;100459.34;;;23.93;53.74
41513;BME280;27244;59.940;30.280;2023-08-31T02:33:48;100475.75;;;24.08;53.96
41513;BME280;27244;59.940;30.280;2023-08-31T02:36:15;100449.19;;;23.96;54.07
41513;BME280;27244;59.940;30.280;2023-08-31T02:38:42;100440.97;;;23.89;53.92
41513;BME280;27244;59.940;30.280;2023-08-31T02:41:10;100426.00;;;23.79;53.63
41513;BME280;27244;59.940;30.280;2023-08-31T02:43:37;100442.00;;;23.82;53.96
41513;BME280;27244;59.940;30.280;2023-08-31T02:46:06;100447.84;;;23.88;53.76
41513;BME280;27244;59.940;30.280;2023-08-31T02:48:33;100487.47;;;24.06;53.80
41513;BME280;27244;59.940;30.280;2023-08-31T02:51:00;100493.13;;;24.06;54.19
41513;BME280;27244;59.940;30.280;2023-08-31T02:53:31;100480.16;;;23.96;53.81
41513;BME280;27244;59.940;30.280;2023-08-31T02:55:58;100481.88;;;23.93;54.16
41513;BME280;27244;59.940;30.280;2023-08-31T02:58:26;100500.38;;;23.94;53.82
41513;BME280;27244;59.940;30.280;2023-08-31T03:00:53;100485.00;;;23.95;54.04
41513;BME280;27244;59.940;30.280;2023-08-31T03:03:23;100473.88;;;23.79;54.05
41513;BME280;27244;59.940;30.280;2023-08-31T03:05:55;100505.28;;;24.03;53.92
41513;BME280;27244;59.940;30.280;2023-08-31T03:08:22;100506.31;;;23.96;53.81
41513;BME280;27244;59.940;30.280;2023-08-31T03:10:50;100505.41;;;23.99;54.24
41513;BME280;27244;59.940;30.280;2023-08-31T03:13:23;100490.00;;;23.79;54.28
41513;BME280;27244;59.940;30.280;2023-08-31T03:15:50;100491.47;;;23.83;53.92
41513;BME280;27244;59.940;30.280;2023-08-31T03:18:18;100489.19;;;23.78;54.29
41513;BME280;27244;59.940;30.280;2023-08-31T03:20:48;100537.75;;;24.08;54.06
41513;BME280;27244;59.940;30.280;2023-08-31T03:23:15;100489.09;;;23.82;54.01
41513;BME280;27244;59.940;30.280;2023-08-31T03:25:43;100513.88;;;23.99;53.83
41513;BME280;27244;59.940;30.280;2023-08-31T03:28:10;100462.84;;;23.72;53.71
41513;BME280;27244;59.940;30.280;2023-08-31T03:30:37;100529.66;;;23.97;54.23
41513;BME280;27244;59.940;30.280;2023-08-31T03:33:05;100472.75;;;23.77;54.03
41513;BME280;27244;59.940;30.280;2023-08-31T03:35:32;100486.28;;;23.82;54.21
41513;BME280;27244;59.940;30.280;2023-08-31T03:38:01;100485.34;;;23.85;54.20
41513;BME280;27244;59.940;30.280;2023-08-31T03:40:28;100509.47;;;23.98;54.00
41513;BME280;27244;59.940;30.280;2023-08-31T03:42:56;100488.97;;;23.85;53.83
41513;BME280;27244;59.940;30.280;2023-08-31T03:45:23;100515.78;;;24.02;54.20
41513;BME280;27244;59.940;30.280;2023-08-31T03:47:50;100471.84;;;23.92;54.06
41513;BME280;27244;59.940;30.280;2023-08-31T03:50:17;100497.06;;;23.96;54.40
41513;BME280;27244;59.940;30.280;2023-08-31T03:52:46;100491.78;;;23.85;54.45
41513;BME280;27244;59.940;30.280;2023-08-31T03:55:15;100512.53;;;24.04;54.26
41513;BME280;27244;59.940;30.280;2023-08-31T03:57:42;100535.50;;;24.02;54.46
41513;BME280;27244;59.940;30.280;2023-08-31T04:00:17;100509.38;;;23.89;54.43
41513;BME280;27244;59.940;30.280;2023-08-31T04:02:45;100533.25;;;23.97;54.03
41513;BME280;27244;59.940;30.280;2023-08-31T04:05:16;100485.47;;;23.81;54.35
41513;BME280;27244;59.940;30.280;2023-08-31T04:07:43;100504.41;;;23.93;53.97
41513;BME280;27244;59.940;30.280;2023-08-31T04:10:10;100494.72;;;23.82;53.63
41513;BME280;27244;59.940;30.280;2023-08-31T04:12:39;100531.00;;;24.05;54.27
41513;BME280;27244;59.940;30.280;2023-08-31T04:15:09;100506.00;;;23.94;54.24
41513;BME280;27244;59.940;30.280;2023-08-31T04:17:37;100523.91;;;24.00;54.17
41513;BME280;27244;59.940;30.280;2023-08-31T04:20:05;100511.50;;;23.85;53.74
41513;BME280;27244;59.940;30.280;2023-08-31T04:22:33;100510.84;;;23.94;54.12
41513;BME280;27244;59.940;30.280;2023-08-31T04:25:01;100488.41;;;23.78;53.99
41513;BME280;27244;59.940;30.280;2023-08-31T04:27:28;100496.75;;;23.81;54.15
41513;BME280;27244;59.940;30.280;2023-08-31T04:29:58;100522.66;;;24.01;54.01
41513;BME280;27244;59.940;30.280;2023-08-31T04:32:26;100528.63;;;24.03;53.92
41513;BME280;27244;59.940;30.280;2023-08-31T04:34:53;100511.06;;;23.87;53.93
41513;BME280;27244;59.940;30.280;2023-08-31T04:37:21;100518.16;;;23.91;54.22
41513;BME280;27244;59.940;30.280;2023-08-31T04:39:48;100497.31;;;23.76;54.03
41513;BME280;27244;59.940;30.280;2023-08-31T04:42:16;100501.16;;;23.82;53.90
41513;BME280;27244;59.940;30.280;2023-08-31T04:44:43;100520.97;;;23.91;54.63
41513;BME280;27244;59.940;30.280;2023-08-31T04:47:12;100541.94;;;24.03;54.59
41513;BME280;27244;59.940;30.280;2023-08-31T04:49:39;100502.50;;;23.78;54.30
41513;BME280;27244;59.940;30.280;2023-08-31T04:52:06;100532.91;;;23.95;54.19
41513;BME280;27244;59.940;30.280;2023-08-31T04:54:34;100526.03;;;23.96;54.46
41513;BME280;27244;59.940;30.280;2023-08-31T04:57:01;100535.03;;;23.91;54.37
41513;BME280;27244;59.940;30.280;2023-08-31T04:59:30;100547.34;;;23.97;54.63
41513;BME280;27244;59.940;30.280;2023-08-31T05:01:58;100551.84;;;24.08;54.05
41513;BME280;27244;59.940;30.280;2023-08-31T05:04:26;100555.78;;;24.10;54.91
41513;BME280;27244;59.940;30.280;2023-08-31T05:06:59;100555.34;;;24.12;54.20
41513;BME280;27244;59.940;30.280;2023-08-31T05:09:29;100558.28;;;24.08;55.43
41513;BME280;27244;59.940;30.280;2023-08-31T05:12:00;100557.72;;;24.13;54.40
41513;BME280;27244;59.940;30.280;2023-08-31T05:14:28;100558.50;;;24.14;55.46
41513;BME280;27244;59.940;30.280;2023-08-31T05:16:55;100544.44;;;24.14;54.13
41513;BME280;27244;59.940;30.280;2023-08-31T05:19:22;100543.06;;;24.18;54.85
41513;BME280;27244;59.940;30.280;2023-08-31T05:21:51;100549.81;;;24.21;54.53
41513;BME280;27244;59.940;30.280;2023-08-31T05:24:18;100546.22;;;24.20;54.84
41513;BME280;27244;59.940;30.280;2023-08-31T05:26:45;100542.16;;;24.21;54.96
41513;BME280;27244;59.940;30.280;2023-08-31T05:29:12;100545.00;;;24.21;54.40
41513;BME280;27244;59.940;30.280;2023-08-31T05:31:39;100557.06;;;24.22;54.73
41513;BME280;27244;59.940;30.280;2023-08-31T05:34:06;100553.00;;;24.23;55.40
41513;BME280;27244;59.940;30.280;2023-08-31T05:36:33;100559.44;;;24.23;54.94
41513;BME280;27244;59.940;30.280;2023-08-31T05:39:02;100555.47;;;24.21;55.57
41513;BME280;27244;59.940;30.280;2023-08-31T05:41:29;100549.03;;;24.20;55.18
41513;BME280;27244;59.940;30.280;2023-08-31T05:43:56;100556.63;;;24.23;54.79
41513;BME280;27244;59.940;30.280;2023-08-31T05:46:24;100553.78;;;24.23;55.34
41513;BME280;27244;59.940;30.280;2023-08-31T05:48:51;100560.66;;;24.22;55.96
41513;BME280;27244;59.940;30.280;2023-08-31T05:51:25;100562.91;;;24.27;55.88
41513;BME280;27244;59.940;30.280;2023-08-31T05:54:01;100570.25;;;24.25;55.28
41513;BME280;27244;59.940;30.280;2023-08-31T05:56:44;100550.94;;;24.11;55.36
41513;BME280;27244;59.940;30.280;2023-08-31T05:59:12;100563.59;;;24.19;55.30
41513;BME280;27244;59.940;30.280;2023-08-31T06:01:40;100547.44;;;24.07;56.30
41513;BME280;27244;59.940;30.280;2023-08-31T06:04:07;100567.53;;;24.21;55.26
41513;BME280;27244;59.940;30.280;2023-08-31T06:06:35;100558.88;;;24.16;55.17
41513;BME280;27244;59.940;30.280;2023-08-31T06:09:04;100551.84;;;24.08;55.46
41513;BME280;27244;59.940;30.280;2023-08-31T06:11:32;100565.19;;;24.20;55.30
41513;BME280;27244;59.940;30.280;2023-08-31T06:14:02;100569.78;;;24.26;55.10
41513;BME280;27244;59.940;30.280;2023-08-31T06:16:29;100573.84;;;24.25;55.18
41513;BME280;27244;59.940;30.280;2023-08-31T06:18:56;100578.25;;;24.26;55.43
41513;BME280;27244;59.940;30.280;2023-08-31T06:21:23;100576.22;;;24.27;54.99
41513;BME280;27244;59.940;30.280;2023-08-31T06:23:53;100574.66;;;24.26;55.67
41513;BME280;27244;59.940;30.280;2023-08-31T06:26:20;100575.44;;;24.26;55.39
41513;BME280;27244;59.940;30.280;2023-08-31T06:28:47;100571.03;;;24.25;55.54
41513;BME280;27244;59.940;30.280;2023-08-31T06:31:15;100578.56;;;24.28;55.44
41513;BME280;27244;59.940;30.280;2023-08-31T06:33:42;100569.31;;;24.28;55.04
41513;BME280;27244;59.940;30.280;2023-08-31T06:36:09;100570.72;;;24.23;56.38
41513;BME280;27244;59.940;30.280;2023-08-31T06:38:36;100579.94;;;24.24;55.93
41513;BME280;27244;59.940;30.280;2023-08-31T06:41:03;100577.91;;;24.24;55.44
41513;BME280;27244;59.940;30.280;2023-08-31T06:43:30;100572.25;;;24.24;55.64
41513;BME280;27244;59.940;30.280;2023-08-31T06:45:57;100570.72;;;24.23;55.91
41513;BME280;27244;59.940;30.280;2023-08-31T06:48:26;100577.00;;;24.27;55.95
41513;BME280;27244;59.940;30.280;2023-08-31T06:50:53;100564.94;;;24.27;55.85
41513;BME280;27244;59.940;30.280;2023-08-31T06:53:21;100557.72;;;24.26;55.94
41513;BME280;27244;59.940;30.280;2023-08-31T06:55:48;100562.13;;;24.27;55.95
41513;BME280;27244;59.940;30.280;2023-08-31T06:58:15;100561.00;;;24.24;55.61
41513;BME280;27244;59.940;30.280;2023-08-31T07:00:42;100563.69;;;24.28;55.90
41513;BME280;27244;59.940;30.280;2023-08-31T07:03:10;100565.72;;;24.27;55.78
41513;BME280;27244;59.940;30.280;2023-08-31T07:05:42;100564.38;;;24.32;55.61
41513;BME280;27244;59.940;30.280;2023-08-31T07:08:09;100560.88;;;24.28;56.12
41513;BME280;27244;59.940;30.280;2023-08-31T07:10:36;100573.41;;;24.27;56.35
41513;BME280;27244;59.940;30.280;2023-08-31T07:13:04;100547.38;;;24.23;56.92
41513;BME280;27244;59.940;30.280;2023-08-31T07:15:31;100554.13;;;24.25;56.59
41513;BME280;27244;59.940;30.280;2023-08-31T07:17:58;100562.91;;;24.27;56.43
41513;BME280;27244;59.940;30.280;2023-08-31T07:20:25;100554.91;;;24.26;56.53
41513;BME280;27244;59.940;30.280;2023-08-31T07:22:54;100558.41;;;24.30;56.48
41513;BME280;27244;59.940;30.280;2023-08-31T07:25:21;100549.59;;;24.28;56.50
41513;BME280;27244;59.940;30.280;2023-08-31T07:27:48;100556.81;;;24.29;56.56
41513;BME280;27244;59.940;30.280;2023-08-31T07:30:15;100549.59;;;24.28;56.37
41513;BME280;27244;59.940;30.280;2023-08-31T07:32:42;100548.72;;;24.31;56.30
41513;BME280;27244;59.940;30.280;2023-08-31T07:35:09;100535.97;;;24.26;56.36
41513;BME280;27244;59.940;30.280;2023-08-31T07:37:36;100543.50;;;24.29;56.43
41513;BME280;27244;59.940;30.280;2023-08-31T07:40:07;100548.25;;;24.32;56.25
41513;BME280;27244;59.940;30.280;2023-08-31T07:42:35;100537.09;;;24.29;56.60
41513;BME280;27244;59.940;30.280;2023-08-31T07:45:03;100537.53;;;24.27;56.54
41513;BME280;27244;59.940;30.280;2023-08-31T07:47:31;100544.31;;;24.30;56.76
41513;BME280;27244;59.940;30.280;2023-08-31T07:49:58;100535.84;;;24.30;56.68
41513;BME280;27244;59.940;30.280;2023-08-31T07:52:25;100527.03;;;24.28;56.76
41513;BME280;27244;59.940;30.280;2023-08-31T07:54:52;100538.19;;;24.31;56.80
41513;BME280;27244;59.940;30.280;2023-08-31T07:57:21;100530.88;;;24.34;56.66
41513;BME280;27244;59.940;30.280;2023-08-31T07:59:48;100521.28;;;24.31;56.50
41513;BME280;27244;59.940;30.280;2023-08-31T08:02:15;100516.13;;;24.30;56.36
41513;BME280;27244;59.940;30.280;2023-08-31T08:04:42;100504.50;;;24.28;56.04
41513;BME280;27244;59.940;30.280;2023-08-31T08:07:09;100510.47;;;24.30;56.12
41513;BME280;27244;59.940;30.280;2023-08-31T08:09:36;100520.53;;;24.31;56.02
41513;BME280;27244;59.940;30.280;2023-08-31T08:12:04;100517.34;;;24.29;55.85
41513;BME280;27244;59.940;30.280;2023-08-31T08:14:33;100513.63;;;24.32;55.88
41513;BME280;27244;59.940;30.280;2023-08-31T08:17:00;100507.66;;;24.30;56.04
41513;BME280;27244;59.940;30.280;2023-08-31T08:19:27;100502.81;;;24.30;56.02
41513;BME280;27244;59.940;30.280;2023-08-31T08:21:54;100507.66;;;24.30;55.71
41513;BME280;27244;59.940;30.280;2023-08-31T08:24:21;100511.84;;;24.25;55.48
41513;BME280;27244;59.940;30.280;2023-08-31T08:26:48;100510.94;;;24.28;55.64
41513;BME280;27244;59.940;30.280;2023-08-31T08:29:15;100498.84;;;24.28;55.45
41513;BME280;27244;59.940;30.280;2023-08-31T08:31:44;100497.97;;;24.31;55.43
41513;BME280;27244;59.940;30.280;2023-08-31T08:34:11;100488.50;;;24.25;55.31
41513;BME280;27244;59.940;30.280;2023-08-31T08:36:38;100489.16;;;24.29;55.49
41513;BME280;27244;59.940;30.280;2023-08-31T08:39:05;100499.66;;;24.28;55.29
41513;BME280;27244;59.940;30.280;2023-08-31T08:41:33;100491.97;;;24.29;55.38
41513;BME280;27244;59.940;30.280;2023-08-31T08:44:02;100487.25;;;24.26;55.10
41513;BME280;27244;59.940;30.280;2023-08-31T08:46:31;100492.44;;;24.27;55.09
41513;BME280;27244;59.940;30.280;2023-08-31T08:49:02;100477.75;;;24.32;55.22
41513;BME280;27244;59.940;30.280;2023-08-31T08:51:31;100482.41;;;24.26;55.11
41513;BME280;27244;59.940;30.280;2023-08-31T08:53:59;100487.59;;;24.28;55.35
41513;BME280;27244;59.940;30.280;2023-08-31T08:56:26;100473.16;;;24.26;55.11
41513;BME280;27244;59.940;30.280;2023-08-31T08:58:53;100467.06;;;24.27;55.33
41513;BME280;27244;59.940;30.280;2023-08-31T09:01:21;100465.03;;;24.28;55.06
41513;BME280;27244;59.940;30.280;2023-08-31T09:03:49;100456.56;;;24.28;55.38
41513;BME280;27244;59.940;30.280;2023-08-31T09:06:18;100459.41;;;24.28;55.03
41513;BME280;27244;59.940;30.280;2023-08-31T09:08:53;100467.59;;;24.35;55.37
41513;BME280;27244;59.940;30.280;2023-08-31T09:11:20;100474.75;;;24.27;55.15
41513;BME280;27244;59.940;30.280;2023-08-31T09:13:49;100469.88;;;24.27;55.26
41513;BME280;27244;59.940;30.280;2023-08-31T09:16:27;100461.53;;;24.36;55.02
41513;BME280;27244;59.940;30.280;2023-08-31T09:18:55;100455.03;;;24.27;55.33
41513;BME280;27244;59.940;30.280;2023-08-31T09:21:34;100459.81;;;24.39;55.08
41513;BME280;27244;59.940;30.280;2023-08-31T09:24:02;100450.63;;;24.26;55.42
41513;BME280;27244;59.940;30.280;2023-08-31T09:26:36;100461.19;;;24.34;55.11
41513;BME280;27244;59.940;30.280;2023-08-31T09:29:04;100457.84;;;24.27;55.36
41513;BME280;27244;59.940;30.280;2023-08-31T09:31:31;100470.34;;;24.26;55.54
41513;BME280;27244;59.940;30.280;2023-08-31T09:33:58;100459.88;;;24.26;55.59
41513;BME280;27244;59.940;30.280;2023-08-31T09:36:27;100466.63;;;24.29;55.36
41513;BME280;27244;59.940;30.280;2023-08-31T09:38:56;100465.38;;;24.30;55.77
41513;BME280;27244;59.940;30.280;2023-08-31T09:41:24;100460.00;;;24.23;55.73
41513;BME280;27244;59.940;30.280;2023-08-31T09:43:51;100451.84;;;24.25;56.12
41513;BME280;27244;59.940;30.280;2023-08-31T09:46:20;100458.16;;;24.29;56.00
41513;BME280;27244;59.940;30.280;2023-08-31T09:48:48;100443.75;;;24.27;55.86
41513;BME280;27244;59.940;30.280;2023-08-31T09:51:15;100452.97;;;24.27;56.23
41513;BME280;27244;59.940;30.280;2023-08-31T09:53:48;100456.00;;;24.33;56.04
41513;BME280;27244;59.940;30.280;2023-08-31T09:56:20;100454.53;;;24.28;55.90
41513;BME280;27244;59.940;30.280;2023-08-31T09:58:50;100456.56;;;24.28;56.06
41513;BME280;27244;59.940;30.280;2023-08-31T10:01:18;100456.56;;;24.28;56.12
41513;BME280;27244;59.940;30.280;2023-08-31T10:03:45;100445.31;;;24.28;56.24
41513;BME280;27244;59.940;30.280;2023-08-31T10:06:12;100443.75;;;24.27;55.79
41513;BME280;27244;59.940;30.280;2023-08-31T10:08:40;100428.06;;;24.26;56.20
41513;BME280;27244;59.940;30.280;2023-08-31T10:11:10;100443.28;;;24.28;56.01
41513;BME280;27244;59.940;30.280;2023-08-31T10:13:40;100435.59;;;24.29;56.13
41513;BME280;27244;59.940;30.280;2023-08-31T10:16:08;100436.84;;;24.28;56.24
41513;BME280;27244;59.940;30.280;2023-08-31T10:18:35;100437.75;;;24.25;56.47
41513;BME280;27244;59.940;30.280;2023-08-31T10:21:03;100449.69;;;24.29;56.35
41513;BME280;27244;59.940;30.280;2023-08-31T10:23:32;100428.06;;;24.26;56.65
41513;BME280;27244;59.940;30.280;2023-08-31T10:26:04;100430.19;;;24.34;56.44
41513;BME280;27244;59.940;30.280;2023-08-31T10:28:40;100431.63;;;24.39;56.30
41513;BME280;27244;59.940;30.280;2023-08-31T10:31:09;100430.31;;;24.31;56.50
41513;BME280;27244;59.940;30.280;2023-08-31T10:33:40;100429.41;;;24.34;56.40
41513;BME280;27244;59.940;30.280;2023-08-31T10:36:12;100427.69;;;24.36;55.95
41513;BME280;27244;59.940;30.280;2023-08-31T10:38:40;100428.25;;;24.31;56.25
41513;BME280;27244;59.940;30.280;2023-08-31T10:41:19;100413.16;;;24.38;56.23
41513;BME280;27244;59.940;30.280;2023-08-31T10:43:50;100419.69;;;24.35;56.09
41513;BME280;27244;59.940;30.280;2023-08-31T10:46:32;100400.81;;;24.44;55.85
41513;BME280;27244;59.940;30.280;2023-08-31T10:49:06;100424.69;;;24.31;56.53
41513;BME280;27244;59.940;30.280;2023-08-31T10:51:41;100429.06;;;24.32;56.39
41513;BME280;27244;59.940;30.280;2023-08-31T10:54:09;100425.56;;;24.28;56.55
41513;BME280;27244;59.940;30.280;2023-08-31T10:57:07;100422.47;;;24.47;56.09
41513;BME280;27244;59.940;30.280;2023-08-31T10:59:46;100423.50;;;24.41;56.35
41513;BME280;27244;59.940;30.280;2023-08-31T11:02:30;100417.75;;;24.44;56.03
41513;BME280;27244;59.940;30.280;2023-08-31T11:05:01;100428.13;;;24.35;56.75
41513;BME280;27244;59.940;30.280;2023-08-31T11:07:29;100419.69;;;24.35;56.75
41513;BME280;27244;59.940;30.280;2023-08-31T11:10:08;100423.38;;;24.44;56.65
41513;BME280;27244;59.940;30.280;2023-08-31T11:12:36;100430.19;;;24.34;56.66
41513;BME280;27244;59.940;30.280;2023-08-31T11:15:05;100427.25;;;24.38;56.63
41513;BME280;27244;59.940;30.280;2023-08-31T11:17:33;100418.13;;;24.34;56.77
41513;BME280;27244;59.940;30.280;2023-08-31T11:20:01;100414.03;;;24.35;56.93
41513;BME280;27244;59.940;30.280;2023-08-31T11:22:30;100412.94;;;24.32;56.92
41513;BME280;27244;59.940;30.280;2023-08-31T11:24:58;100419.69;;;24.35;57.11
41513;BME280;27244;59.940;30.280;2023-08-31T11:27:26;100417.34;;;24.33;57.41
41513;BME280;27244;59.940;30.280;2023-08-31T11:29:53;100413.16;;;24.38;57.40
41513;BME280;27244;59.940;30.280;2023-08-31T11:32:24;100415.50;;;24.39;57.27
41513;BME280;27244;59.940;30.280;2023-08-31T11:34:51;100418.69;;;24.63;56.16
41513;BME280;27244;59.940;30.280;2023-08-31T11:37:19;100423.81;;;24.43;57.19
41513;BME280;27244;59.940;30.280;2023-08-31T11:39:50;100421.34;;;24.45;57.18
41513;BME280;27244;59.940;30.280;2023-08-31T11:42:19;100415.84;;;24.41;57.25
41513;BME280;27244;59.940;30.280;2023-08-31T11:44:48;100414.69;;;24.39;57.36
41513;BME280;27244;59.940;30.280;2023-08-31T11:47:16;100418.31;;;24.39;57.28
41513;BME280;27244;59.940;30.280;2023-08-31T11:49:45;100412.53;;;24.43;57.43
41513;BME280;27244;59.940;30.280;2023-08-31T11:52:14;100410.66;;;24.40;56.19
41513;BME280;27244;59.940;30.280;2023-08-31T11:54:42;100399.06;;;24.38;55.84
41513;BME280;27244;59.940;30.280;2023-08-31T11:57:09;100403.69;;;24.32;55.48
41513;BME280;27244;59.940;30.280;2023-08-31T11:59:38;100409.97;;;24.36;55.33
41513;BME280;27244;59.940;30.280;2023-08-31T12:02:06;100404.34;;;24.36;55.04
41513;BME280;27244;59.940;30.280;2023-08-31T12:04:41;100395.31;;;24.41;54.90
41513;BME280;27244;59.940;30.280;2023-08-31T12:07:10;100400.72;;;24.35;54.37
41513;BME280;27244;59.940;30.280;2023-08-31T12:09:38;100398.03;;;24.32;54.88
41513;BME280;27244;59.940;30.280;2023-08-31T12:12:07;100396.38;;;24.34;54.50
41513;BME280;27244;59.940;30.280;2023-08-31T12:14:37;100381.13;;;24.32;54.35
41513;BME280;27244;59.940;30.280;2023-08-31T12:17:06;100383.28;;;24.28;54.29
41513;BME280;27244;59.940;30.280;2023-08-31T12:19:36;100385.97;;;24.31;54.04
41513;BME280;27244;59.940;30.280;2023-08-31T12:22:04;100377.34;;;24.26;53.98
41513;BME280;27244;59.940;30.280;2023-08-31T12:24:38;100381.94;;;24.32;54.02
41513;BME280;27244;59.940;30.280;2023-08-31T12:27:06;100376.53;;;24.25;53.67
41513;BME280;27244;59.940;30.280;2023-08-31T12:29:35;100377.34;;;24.26;53.42
41513;BME280;27244;59.940;30.280;2023-08-31T12:32:02;100393.91;;;24.24;53.58
41513;BME280;27244;59.940;30.280;2023-08-31T12:34:30;100382.63;;;24.24;53.65
41513;BME280;27244;59.940;30.280;2023-08-31T12:36:57;100397.97;;;24.23;53.26
41513;BME280;27244;59.940;30.280;2023-08-31T12:39:26;100405.66;;;24.22;53.51
41513;BME280;27244;59.940;30.280;2023-08-31T12:41:54;100391.06;;;24.24;53.87
41513;BME280;27244;59.940;30.280;2023-08-31T12:44:22;100393.56;;;24.22;54.29
41513;BME280;27244;59.940;30.280;2023-08-31T12:46:51;100405.16;;;24.24;54.72
41513;BME280;27244;59.940;30.280;2023-08-31T12:49:18;100389.84;;;24.25;55.44